sensor_id;sensor_type;location;lat;lon;timestamp;P1;durP1;ratioP1;P2;durP2;ratioP2
12141;SDS011;6134;59.284;18.022;2023-05-17T00:00:32;5.88;;;5.20;;
12141;SDS011;6134;59.284;18.022;2023-05-17T00:03:01;6.53;;;5.93;;
12141;SDS011;6134;59.284;18.022;2023-05-17T00:05:29;6.00;;;5.45;;
12141;SDS011;6134;59.284;18.022;2023-05-17T00:07:58;6.45;;;5.93;;
12141;SDS011;6134;59.284;18.022;2023-05-17T00:10:27;5.95;;;5.45;;
12141;SDS011;6134;59.284;18.022;2023-05-17T00:12:56;9.43;;;5.80;;
12141;SDS011;6134;59.284;18.022;2023-05-17T00:15:26;6.00;;;5.50;;
12141;SDS011;6134;59.284;18.022;2023-05-17T00:17:55;7.05;;;5.88;;
12141;SDS011;6134;59.284;18.022;2023-05-17T00:20:24;7.38;;;6.68;;
12141;SDS011;6134;59.284;18.022;2023-05-17T00:22:53;7.43;;;6.13;;
12141;SDS011;6134;59.284;18.022;2023-05-17T00:25:21;8.90;;;5.97;;
12141;SDS011;6134;59.284;18.022;2023-05-17T00:27:50;7.07;;;5.82;;
12141;SDS011;6134;59.284;18.022;2023-05-17T00:30:19;6.05;;;5.43;;
12141;SDS011;6134;59.284;18.022;2023-05-17T00:32:49;6.57;;;6.07;;
12141;SDS011;6134;59.284;18.022;2023-05-17T00:35:18;6.40;;;5.88;;
12141;SDS011;6134;59.284;18.022;2023-05-17T00:37:47;6.10;;;5.55;;
12141;SDS011;6134;59.284;18.022;2023-05-17T00:40:16;6.10;;;5.50;;
12141;SDS011;6134;59.284;18.022;2023-05-17T00:42:45;6.07;;;5.43;;
12141;SDS011;6134;59.284;18.022;2023-05-17T00:45:14;9.27;;;5.50;;
12141;SDS011;6134;59.284;18.022;2023-05-17T00:47:43;7.90;;;6.45;;
12141;SDS011;6134;59.284;18.022;2023-05-17T00:50:13;6.65;;;6.03;;
12141;SDS011;6134;59.284;18.022;2023-05-17T00:52:42;6.65;;;6.05;;
12141;SDS011;6134;59.284;18.022;2023-05-17T00:55:11;6.25;;;5.65;;
12141;SDS011;6134;59.284;18.022;2023-05-17T00:57:39;6.20;;;5.60;;
12141;SDS011;6134;59.284;18.022;2023-05-17T01:00:09;6.53;;;5.88;;
12141;SDS011;6134;59.284;18.022;2023-05-17T01:02:38;6.60;;;6.00;;
12141;SDS011;6134;59.284;18.022;2023-05-17T01:05:07;6.18;;;5.57;;
12141;SDS011;6134;59.284;18.022;2023-05-17T01:07:37;5.97;;;5.47;;
12141;SDS011;6134;59.284;18.022;2023-05-17T01:10:06;6.45;;;5.95;;
12141;SDS011;6134;59.284;18.022;2023-05-17T01:12:38;6.93;;;5.95;;
12141;SDS011;6134;59.284;18.022;2023-05-17T01:15:11;5.80;;;5.30;;
12141;SDS011;6134;59.284;18.022;2023-05-17T01:17:49;6.35;;;5.28;;
12141;SDS011;6134;59.284;18.022;2023-05-17T01:20:20;6.65;;;6.03;;
12141;SDS011;6134;59.284;18.022;2023-05-17T01:22:59;6.18;;;5.68;;
12141;SDS011;6134;59.284;18.022;2023-05-17T01:25:34;6.28;;;5.68;;
12141;SDS011;6134;59.284;18.022;2023-05-17T01:28:05;6.38;;;5.88;;
12141;SDS011;6134;59.284;18.022;2023-05-17T01:30:35;6.20;;;5.63;;
12141;SDS011;6134;59.284;18.022;2023-05-17T01:33:05;6.72;;;6.13;;
12141;SDS011;6134;59.284;18.022;2023-05-17T01:35:34;6.28;;;5.68;;
12141;SDS011;6134;59.284;18.022;2023-05-17T01:38:03;6.25;;;5.68;;
12141;SDS011;6134;59.284;18.022;2023-05-17T01:40:32;6.13;;;5.63;;
12141;SDS011;6134;59.284;18.022;2023-05-17T01:43:06;7.65;;;5.50;;
12141;SDS011;6134;59.284;18.022;2023-05-17T01:45:38;6.18;;;5.75;;
12141;SDS011;6134;59.284;18.022;2023-05-17T01:48:11;6.55;;;5.70;;
12141;SDS011;6134;59.284;18.022;2023-05-17T01:50:43;6.00;;;5.50;;
12141;SDS011;6134;59.284;18.022;2023-05-17T01:53:16;5.88;;;5.38;;
12141;SDS011;6134;59.284;18.022;2023-05-17T01:55:46;6.10;;;5.60;;
12141;SDS011;6134;59.284;18.022;2023-05-17T01:58:24;8.75;;;5.47;;
12141;SDS011;6134;59.284;18.022;2023-05-17T02:00:53;5.78;;;5.28;;
12141;SDS011;6134;59.284;18.022;2023-05-17T02:03:23;5.80;;;5.25;;
12141;SDS011;6134;59.284;18.022;2023-05-17T02:05:52;9.43;;;5.50;;
12141;SDS011;6134;59.284;18.022;2023-05-17T02:08:20;6.20;;;5.60;;
12141;SDS011;6134;59.284;18.022;2023-05-17T02:10:50;5.93;;;5.32;;
12141;SDS011;6134;59.284;18.022;2023-05-17T02:13:18;6.13;;;5.05;;
12141;SDS011;6134;59.284;18.022;2023-05-17T02:15:49;6.40;;;5.55;;
12141;SDS011;6134;59.284;18.022;2023-05-17T02:18:17;6.43;;;5.93;;
12141;SDS011;6134;59.284;18.022;2023-05-17T02:20:47;5.43;;;5.03;;
12141;SDS011;6134;59.284;18.022;2023-05-17T02:23:16;5.30;;;4.80;;
12141;SDS011;6134;59.284;18.022;2023-05-17T02:25:45;5.85;;;5.35;;
12141;SDS011;6134;59.284;18.022;2023-05-17T02:28:13;5.68;;;5.28;;
12141;SDS011;6134;59.284;18.022;2023-05-17T02:30:42;5.78;;;5.28;;
12141;SDS011;6134;59.284;18.022;2023-05-17T02:33:13;5.53;;;5.07;;
12141;SDS011;6134;59.284;18.022;2023-05-17T02:35:42;5.82;;;5.15;;
12141;SDS011;6134;59.284;18.022;2023-05-17T02:38:11;5.88;;;5.40;;
12141;SDS011;6134;59.284;18.022;2023-05-17T02:40:40;6.18;;;5.60;;
12141;SDS011;6134;59.284;18.022;2023-05-17T02:43:08;6.00;;;5.60;;
12141;SDS011;6134;59.284;18.022;2023-05-17T02:45:37;6.53;;;5.57;;
12141;SDS011;6134;59.284;18.022;2023-05-17T02:48:06;5.32;;;4.82;;
12141;SDS011;6134;59.284;18.022;2023-05-17T02:50:36;6.10;;;5.60;;
12141;SDS011;6134;59.284;18.022;2023-05-17T02:53:05;5.25;;;4.85;;
12141;SDS011;6134;59.284;18.022;2023-05-17T02:55:34;5.25;;;4.75;;
12141;SDS011;6134;59.284;18.022;2023-05-17T02:58:03;5.70;;;5.10;;
12141;SDS011;6134;59.284;18.022;2023-05-17T03:00:33;4.93;;;4.53;;
12141;SDS011;6134;59.284;18.022;2023-05-17T03:03:01;6.35;;;5.38;;
12141;SDS011;6134;59.284;18.022;2023-05-17T03:05:32;5.50;;;5.00;;
12141;SDS011;6134;59.284;18.022;2023-05-17T03:08:02;5.07;;;4.68;;
12141;SDS011;6134;59.284;18.022;2023-05-17T03:10:31;5.20;;;4.80;;
12141;SDS011;6134;59.284;18.022;2023-05-17T03:13:00;5.15;;;4.75;;
12141;SDS011;6134;59.284;18.022;2023-05-17T03:15:33;5.68;;;4.47;;
12141;SDS011;6134;59.284;18.022;2023-05-17T03:18:02;5.35;;;4.95;;
12141;SDS011;6134;59.284;18.022;2023-05-17T03:20:32;5.18;;;4.55;;
12141;SDS011;6134;59.284;18.022;2023-05-17T03:23:03;4.93;;;4.53;;
12141;SDS011;6134;59.284;18.022;2023-05-17T03:25:36;5.57;;;5.18;;
12141;SDS011;6134;59.284;18.022;2023-05-17T03:28:05;4.63;;;4.32;;
12141;SDS011;6134;59.284;18.022;2023-05-17T03:30:33;5.15;;;4.65;;
12141;SDS011;6134;59.284;18.022;2023-05-17T03:33:02;5.80;;;4.70;;
12141;SDS011;6134;59.284;18.022;2023-05-17T03:35:32;5.00;;;4.60;;
12141;SDS011;6134;59.284;18.022;2023-05-17T03:38:03;6.00;;;4.95;;
12141;SDS011;6134;59.284;18.022;2023-05-17T03:40:31;5.93;;;5.43;;
12141;SDS011;6134;59.284;18.022;2023-05-17T03:43:00;5.78;;;4.78;;
12141;SDS011;6134;59.284;18.022;2023-05-17T03:45:30;5.35;;;4.95;;
12141;SDS011;6134;59.284;18.022;2023-05-17T03:47:59;4.80;;;4.50;;
12141;SDS011;6134;59.284;18.022;2023-05-17T03:50:28;5.18;;;4.68;;
12141;SDS011;6134;59.284;18.022;2023-05-17T03:52:58;5.10;;;4.70;;
12141;SDS011;6134;59.284;18.022;2023-05-17T03:55:28;4.80;;;4.40;;
12141;SDS011;6134;59.284;18.022;2023-05-17T03:57:58;4.85;;;4.45;;
12141;SDS011;6134;59.284;18.022;2023-05-17T04:00:27;5.32;;;4.93;;
12141;SDS011;6134;59.284;18.022;2023-05-17T04:03:00;7.78;;;4.55;;
12141;SDS011;6134;59.284;18.022;2023-05-17T04:05:29;4.93;;;4.53;;
12141;SDS011;6134;59.284;18.022;2023-05-17T04:07:59;6.00;;;4.63;;
12141;SDS011;6134;59.284;18.022;2023-05-17T04:10:29;4.90;;;4.50;;
12141;SDS011;6134;59.284;18.022;2023-05-17T04:12:58;4.75;;;4.43;;
12141;SDS011;6134;59.284;18.022;2023-05-17T04:15:27;4.82;;;4.30;;
12141;SDS011;6134;59.284;18.022;2023-05-17T04:17:56;6.72;;;4.90;;
12141;SDS011;6134;59.284;18.022;2023-05-17T04:20:25;4.68;;;4.28;;
12141;SDS011;6134;59.284;18.022;2023-05-17T04:22:54;5.10;;;4.70;;
12141;SDS011;6134;59.284;18.022;2023-05-17T04:25:26;4.85;;;4.45;;
12141;SDS011;6134;59.284;18.022;2023-05-17T04:27:56;6.63;;;5.10;;
12141;SDS011;6134;59.284;18.022;2023-05-17T04:30:25;4.47;;;4.07;;
12141;SDS011;6134;59.284;18.022;2023-05-17T04:32:54;5.35;;;4.32;;
12141;SDS011;6134;59.284;18.022;2023-05-17T04:35:23;4.65;;;4.25;;
12141;SDS011;6134;59.284;18.022;2023-05-17T04:37:53;4.68;;;4.32;;
12141;SDS011;6134;59.284;18.022;2023-05-17T04:40:22;4.78;;;4.38;;
12141;SDS011;6134;59.284;18.022;2023-05-17T04:42:51;4.93;;;4.40;;
12141;SDS011;6134;59.284;18.022;2023-05-17T04:45:21;5.15;;;4.75;;
12141;SDS011;6134;59.284;18.022;2023-05-17T04:47:50;5.10;;;4.47;;
12141;SDS011;6134;59.284;18.022;2023-05-17T04:50:19;5.40;;;5.00;;
12141;SDS011;6134;59.284;18.022;2023-05-17T04:52:49;4.95;;;4.55;;
12141;SDS011;6134;59.284;18.022;2023-05-17T04:55:18;5.45;;;4.82;;
12141;SDS011;6134;59.284;18.022;2023-05-17T04:57:47;5.25;;;4.75;;
12141;SDS011;6134;59.284;18.022;2023-05-17T05:00:16;5.10;;;4.70;;
12141;SDS011;6134;59.284;18.022;2023-05-17T05:02:54;4.97;;;4.57;;
12141;SDS011;6134;59.284;18.022;2023-05-17T05:05:23;5.28;;;4.80;;
12141;SDS011;6134;59.284;18.022;2023-05-17T05:07:53;5.20;;;4.65;;
12141;SDS011;6134;59.284;18.022;2023-05-17T05:10:21;4.55;;;4.15;;
12141;SDS011;6134;59.284;18.022;2023-05-17T05:12:50;9.32;;;4.90;;
12141;SDS011;6134;59.284;18.022;2023-05-17T05:15:19;5.38;;;4.93;;
12141;SDS011;6134;59.284;18.022;2023-05-17T05:17:54;6.20;;;5.35;;
12141;SDS011;6134;59.284;18.022;2023-05-17T05:20:23;7.13;;;4.57;;
12141;SDS011;6134;59.284;18.022;2023-05-17T05:22:55;5.07;;;4.57;;
12141;SDS011;6134;59.284;18.022;2023-05-17T05:25:25;5.25;;;4.85;;
12141;SDS011;6134;59.284;18.022;2023-05-17T05:27:54;6.75;;;5.03;;
12141;SDS011;6134;59.284;18.022;2023-05-17T05:30:24;5.93;;;5.32;;
12141;SDS011;6134;59.284;18.022;2023-05-17T05:32:55;5.82;;;5.28;;
12141;SDS011;6134;59.284;18.022;2023-05-17T05:35:24;8.25;;;5.30;;
12141;SDS011;6134;59.284;18.022;2023-05-17T05:37:57;7.15;;;6.07;;
12141;SDS011;6134;59.284;18.022;2023-05-17T05:40:26;6.57;;;5.55;;
12141;SDS011;6134;59.284;18.022;2023-05-17T05:42:56;6.25;;;5.05;;
12141;SDS011;6134;59.284;18.022;2023-05-17T05:45:25;5.28;;;4.68;;
12141;SDS011;6134;59.284;18.022;2023-05-17T05:48:00;3.97;;;3.67;;
12141;SDS011;6134;59.284;18.022;2023-05-17T05:50:30;4.20;;;3.80;;
12141;SDS011;6134;59.284;18.022;2023-05-17T05:53:05;3.72;;;3.30;;
12141;SDS011;6134;59.284;18.022;2023-05-17T05:55:48;3.90;;;3.50;;
12141;SDS011;6134;59.284;18.022;2023-05-17T05:58:18;4.10;;;3.67;;
12141;SDS011;6134;59.284;18.022;2023-05-17T06:00:48;3.60;;;3.40;;
12141;SDS011;6134;59.284;18.022;2023-05-17T06:03:18;4.05;;;3.65;;
12141;SDS011;6134;59.284;18.022;2023-05-17T06:05:47;3.58;;;3.20;;
12141;SDS011;6134;59.284;18.022;2023-05-17T06:08:16;4.60;;;3.10;;
12141;SDS011;6134;59.284;18.022;2023-05-17T06:10:45;3.15;;;2.85;;
12141;SDS011;6134;59.284;18.022;2023-05-17T06:13:14;3.78;;;3.20;;
12141;SDS011;6134;59.284;18.022;2023-05-17T06:15:43;3.47;;;3.17;;
12141;SDS011;6134;59.284;18.022;2023-05-17T06:18:11;3.72;;;3.42;;
12141;SDS011;6134;59.284;18.022;2023-05-17T06:20:42;3.67;;;3.38;;
12141;SDS011;6134;59.284;18.022;2023-05-17T06:23:12;5.25;;;3.00;;
12141;SDS011;6134;59.284;18.022;2023-05-17T06:25:40;3.88;;;3.00;;
12141;SDS011;6134;59.284;18.022;2023-05-17T06:28:09;3.47;;;3.13;;
12141;SDS011;6134;59.284;18.022;2023-05-17T06:30:38;3.78;;;3.47;;
12141;SDS011;6134;59.284;18.022;2023-05-17T06:33:07;3.75;;;3.28;;
12141;SDS011;6134;59.284;18.022;2023-05-17T06:35:36;3.08;;;2.88;;
12141;SDS011;6134;59.284;18.022;2023-05-17T06:38:22;3.75;;;2.80;;
12141;SDS011;6134;59.284;18.022;2023-05-17T06:40:51;4.88;;;2.30;;
12141;SDS011;6134;59.284;18.022;2023-05-17T06:43:21;2.75;;;2.55;;
12141;SDS011;6134;59.284;18.022;2023-05-17T06:45:50;4.57;;;2.95;;
12141;SDS011;6134;59.284;18.022;2023-05-17T06:48:18;2.92;;;2.65;;
12141;SDS011;6134;59.284;18.022;2023-05-17T06:50:47;2.55;;;2.35;;
12141;SDS011;6134;59.284;18.022;2023-05-17T06:53:16;3.08;;;2.88;;
12141;SDS011;6134;59.284;18.022;2023-05-17T06:55:46;3.03;;;2.58;;
12141;SDS011;6134;59.284;18.022;2023-05-17T06:58:15;3.10;;;2.88;;
12141;SDS011;6134;59.284;18.022;2023-05-17T07:00:44;2.70;;;2.50;;
12141;SDS011;6134;59.284;18.022;2023-05-17T07:03:12;2.03;;;1.92;;
12141;SDS011;6134;59.284;18.022;2023-05-17T07:05:41;2.75;;;2.28;;
12141;SDS011;6134;59.284;18.022;2023-05-17T07:08:10;3.15;;;2.58;;
12141;SDS011;6134;59.284;18.022;2023-05-17T07:10:40;2.97;;;2.30;;
12141;SDS011;6134;59.284;18.022;2023-05-17T07:13:11;2.38;;;2.17;;
12141;SDS011;6134;59.284;18.022;2023-05-17T07:15:39;2.53;;;2.05;;
12141;SDS011;6134;59.284;18.022;2023-05-17T07:18:08;2.70;;;2.30;;
12141;SDS011;6134;59.284;18.022;2023-05-17T07:20:37;2.42;;;2.22;;
12141;SDS011;6134;59.284;18.022;2023-05-17T07:23:06;2.75;;;2.22;;
12141;SDS011;6134;59.284;18.022;2023-05-17T07:25:35;2.50;;;2.30;;
12141;SDS011;6134;59.284;18.022;2023-05-17T07:28:06;3.60;;;2.60;;
12141;SDS011;6134;59.284;18.022;2023-05-17T07:30:36;2.53;;;2.33;;
12141;SDS011;6134;59.284;18.022;2023-05-17T07:33:05;3.25;;;2.72;;
12141;SDS011;6134;59.284;18.022;2023-05-17T07:35:35;2.85;;;2.33;;
12141;SDS011;6134;59.284;18.022;2023-05-17T07:38:04;1.70;;;1.60;;
12141;SDS011;6134;59.284;18.022;2023-05-17T07:40:33;2.20;;;1.40;;
12141;SDS011;6134;59.284;18.022;2023-05-17T07:43:02;1.50;;;1.00;;
12141;SDS011;6134;59.284;18.022;2023-05-17T07:45:31;3.03;;;0.93;;
12141;SDS011;6134;59.284;18.022;2023-05-17T07:48:01;0.95;;;0.90;;
12141;SDS011;6134;59.284;18.022;2023-05-17T07:50:30;3.72;;;1.10;;
12141;SDS011;6134;59.284;18.022;2023-05-17T07:52:59;1.13;;;0.77;;
12141;SDS011;6134;59.284;18.022;2023-05-17T07:55:28;0.90;;;0.90;;
12141;SDS011;6134;59.284;18.022;2023-05-17T07:57:57;1.17;;;0.68;;
12141;SDS011;6134;59.284;18.022;2023-05-17T08:00:25;1.23;;;0.95;;
12141;SDS011;6134;59.284;18.022;2023-05-17T08:02:54;0.80;;;0.80;;
12141;SDS011;6134;59.284;18.022;2023-05-17T08:05:25;1.40;;;0.73;;
12141;SDS011;6134;59.284;18.022;2023-05-17T08:07:54;0.95;;;0.93;;
12141;SDS011;6134;59.284;18.022;2023-05-17T08:10:25;0.90;;;0.90;;
12141;SDS011;6134;59.284;18.022;2023-05-17T08:12:54;0.80;;;0.80;;
12141;SDS011;6134;59.284;18.022;2023-05-17T08:15:23;0.90;;;0.90;;
12141;SDS011;6134;59.284;18.022;2023-05-17T08:17:52;0.90;;;0.90;;
12141;SDS011;6134;59.284;18.022;2023-05-17T08:20:21;1.67;;;0.80;;
12141;SDS011;6134;59.284;18.022;2023-05-17T08:22:51;1.83;;;0.90;;
12141;SDS011;6134;59.284;18.022;2023-05-17T08:25:20;1.00;;;0.90;;
12141;SDS011;6134;59.284;18.022;2023-05-17T08:27:49;1.65;;;1.08;;
12141;SDS011;6134;59.284;18.022;2023-05-17T08:30:18;1.05;;;1.00;;
12141;SDS011;6134;59.284;18.022;2023-05-17T08:32:53;1.20;;;1.10;;
12141;SDS011;6134;59.284;18.022;2023-05-17T08:35:22;1.17;;;1.10;;
12141;SDS011;6134;59.284;18.022;2023-05-17T08:37:56;1.48;;;1.05;;
12141;SDS011;6134;59.284;18.022;2023-05-17T08:40:26;3.30;;;1.15;;
12141;SDS011;6134;59.284;18.022;2023-05-17T08:42:55;2.05;;;1.05;;
12141;SDS011;6134;59.284;18.022;2023-05-17T08:45:24;1.17;;;1.15;;
12141;SDS011;6134;59.284;18.022;2023-05-17T08:47:55;1.75;;;1.23;;
12141;SDS011;6134;59.284;18.022;2023-05-17T08:50:24;1.10;;;1.05;;
12141;SDS011;6134;59.284;18.022;2023-05-17T08:52:57;1.20;;;1.10;;
12141;SDS011;6134;59.284;18.022;2023-05-17T08:55:26;2.00;;;1.10;;
12141;SDS011;6134;59.284;18.022;2023-05-17T08:57:58;1.48;;;1.10;;
12141;SDS011;6134;59.284;18.022;2023-05-17T09:00:28;1.00;;;1.00;;
12141;SDS011;6134;59.284;18.022;2023-05-17T09:02:58;0.95;;;0.93;;
12141;SDS011;6134;59.284;18.022;2023-05-17T09:05:27;2.38;;;1.20;;
12141;SDS011;6134;59.284;18.022;2023-05-17T09:07:58;1.20;;;1.10;;
12141;SDS011;6134;59.284;18.022;2023-05-17T09:10:27;1.20;;;1.00;;
12141;SDS011;6134;59.284;18.022;2023-05-17T09:12:57;0.50;;;0.50;;
12141;SDS011;6134;59.284;18.022;2023-05-17T09:15:26;0.50;;;0.50;;
12141;SDS011;6134;59.284;18.022;2023-05-17T09:17:56;1.27;;;0.68;;
12141;SDS011;6134;59.284;18.022;2023-05-17T09:20:26;0.70;;;0.47;;
12141;SDS011;6134;59.284;18.022;2023-05-17T09:23:01;1.83;;;0.40;;
12141;SDS011;6134;59.284;18.022;2023-05-17T09:25:30;0.68;;;0.45;;
12141;SDS011;6134;59.284;18.022;2023-05-17T09:27:59;0.40;;;0.40;;
12141;SDS011;6134;59.284;18.022;2023-05-17T09:30:28;0.65;;;0.47;;
12141;SDS011;6134;59.284;18.022;2023-05-17T09:32:57;2.55;;;0.40;;
12141;SDS011;6134;59.284;18.022;2023-05-17T09:35:33;0.50;;;0.50;;
12141;SDS011;6134;59.284;18.022;2023-05-17T09:38:05;1.15;;;0.40;;
12141;SDS011;6134;59.284;18.022;2023-05-17T09:40:36;1.35;;;0.45;;
12141;SDS011;6134;59.284;18.022;2023-05-17T09:43:05;0.90;;;0.40;;
12141;SDS011;6134;59.284;18.022;2023-05-17T09:45:35;0.82;;;0.43;;
12141;SDS011;6134;59.284;18.022;2023-05-17T09:48:11;0.40;;;0.40;;
12141;SDS011;6134;59.284;18.022;2023-05-17T09:50:43;0.30;;;0.30;;
12141;SDS011;6134;59.284;18.022;2023-05-17T09:53:24;0.40;;;0.40;;
12141;SDS011;6134;59.284;18.022;2023-05-17T09:55:53;0.30;;;0.30;;
12141;SDS011;6134;59.284;18.022;2023-05-17T09:58:23;0.30;;;0.30;;
12141;SDS011;6134;59.284;18.022;2023-05-17T10:00:52;1.80;;;0.40;;
12141;SDS011;6134;59.284;18.022;2023-05-17T10:03:21;1.65;;;0.50;;
12141;SDS011;6134;59.284;18.022;2023-05-17T10:05:50;0.30;;;0.30;;
12141;SDS011;6134;59.284;18.022;2023-05-17T10:08:20;0.40;;;0.40;;
12141;SDS011;6134;59.284;18.022;2023-05-17T10:10:53;0.47;;;0.47;;
12141;SDS011;6134;59.284;18.022;2023-05-17T10:13:23;0.30;;;0.30;;
12141;SDS011;6134;59.284;18.022;2023-05-17T10:16:05;0.40;;;0.40;;
12141;SDS011;6134;59.284;18.022;2023-05-17T10:18:34;0.47;;;0.40;;
12141;SDS011;6134;59.284;18.022;2023-05-17T10:21:06;0.40;;;0.40;;
12141;SDS011;6134;59.284;18.022;2023-05-17T10:23:36;0.40;;;0.40;;
12141;SDS011;6134;59.284;18.022;2023-05-17T10:26:06;0.38;;;0.38;;
12141;SDS011;6134;59.284;18.022;2023-05-17T10:28:36;0.55;;;0.50;;
12141;SDS011;6134;59.284;18.022;2023-05-17T10:31:04;0.40;;;0.40;;
12141;SDS011;6134;59.284;18.022;2023-05-17T10:33:34;0.82;;;0.50;;
12141;SDS011;6134;59.284;18.022;2023-05-17T10:36:03;0.68;;;0.50;;
12141;SDS011;6134;59.284;18.022;2023-05-17T10:38:33;0.65;;;0.50;;
12141;SDS011;6134;59.284;18.022;2023-05-17T10:41:10;0.68;;;0.50;;
12141;SDS011;6134;59.284;18.022;2023-05-17T10:43:39;0.45;;;0.45;;
12141;SDS011;6134;59.284;18.022;2023-05-17T10:46:11;0.50;;;0.50;;
12141;SDS011;6134;59.284;18.022;2023-05-17T10:48:41;1.13;;;0.50;;
12141;SDS011;6134;59.284;18.022;2023-05-17T10:51:10;2.55;;;0.70;;
12141;SDS011;6134;59.284;18.022;2023-05-17T10:56:37;0.45;;;0.40;;
12141;SDS011;6134;59.284;18.022;2023-05-17T10:59:13;1.75;;;0.60;;
12141;SDS011;6134;59.284;18.022;2023-05-17T11:04:32;0.60;;;0.60;;
12141;SDS011;6134;59.284;18.022;2023-05-17T11:09:51;0.50;;;0.50;;
12141;SDS011;6134;59.284;18.022;2023-05-17T11:12:32;0.47;;;0.47;;
12141;SDS011;6134;59.284;18.022;2023-05-17T11:15:06;0.40;;;0.40;;
12141;SDS011;6134;59.284;18.022;2023-05-17T11:17:46;0.93;;;0.60;;
12141;SDS011;6134;59.284;18.022;2023-05-17T11:20:29;0.75;;;0.43;;
12141;SDS011;6134;59.284;18.022;2023-05-17T11:23:00;0.70;;;0.70;;
12141;SDS011;6134;59.284;18.022;2023-05-17T11:25:30;1.00;;;0.60;;
12141;SDS011;6134;59.284;18.022;2023-05-17T11:28:06;1.38;;;0.70;;
12141;SDS011;6134;59.284;18.022;2023-05-17T11:30:39;1.00;;;0.65;;
12141;SDS011;6134;59.284;18.022;2023-05-17T11:33:09;0.70;;;0.60;;
12141;SDS011;6134;59.284;18.022;2023-05-17T11:35:55;0.70;;;0.70;;
12141;SDS011;6134;59.284;18.022;2023-05-17T11:38:26;0.93;;;0.73;;
12141;SDS011;6134;59.284;18.022;2023-05-17T11:40:58;0.50;;;0.50;;
12141;SDS011;6134;59.284;18.022;2023-05-17T11:43:54;0.80;;;0.70;;
12141;SDS011;6134;59.284;18.022;2023-05-17T11:46:23;0.70;;;0.70;;
12141;SDS011;6134;59.284;18.022;2023-05-17T11:48:52;0.73;;;0.60;;
12141;SDS011;6134;59.284;18.022;2023-05-17T11:51:21;0.75;;;0.70;;
12141;SDS011;6134;59.284;18.022;2023-05-17T11:53:52;1.23;;;0.88;;
12141;SDS011;6134;59.284;18.022;2023-05-17T11:56:22;1.05;;;0.95;;
12141;SDS011;6134;59.284;18.022;2023-05-17T11:59:09;1.25;;;0.77;;
12141;SDS011;6134;59.284;18.022;2023-05-17T12:01:41;2.03;;;0.77;;
12141;SDS011;6134;59.284;18.022;2023-05-17T12:04:11;1.45;;;0.70;;
12141;SDS011;6134;59.284;18.022;2023-05-17T12:06:41;1.60;;;0.80;;
12141;SDS011;6134;59.284;18.022;2023-05-17T12:09:14;1.38;;;0.80;;
12141;SDS011;6134;59.284;18.022;2023-05-17T12:11:43;2.38;;;0.88;;
12141;SDS011;6134;59.284;18.022;2023-05-17T12:14:15;0.75;;;0.70;;
12141;SDS011;6134;59.284;18.022;2023-05-17T12:16:44;0.50;;;0.50;;
12141;SDS011;6134;59.284;18.022;2023-05-17T12:19:17;0.70;;;0.70;;
12141;SDS011;6134;59.284;18.022;2023-05-17T12:21:47;1.75;;;0.70;;
12141;SDS011;6134;59.284;18.022;2023-05-17T12:24:17;1.17;;;0.73;;
12141;SDS011;6134;59.284;18.022;2023-05-17T12:26:46;0.98;;;0.70;;
12141;SDS011;6134;59.284;18.022;2023-05-17T12:29:18;0.80;;;0.80;;
12141;SDS011;6134;59.284;18.022;2023-05-17T12:31:49;2.05;;;0.90;;
12141;SDS011;6134;59.284;18.022;2023-05-17T12:34:18;1.70;;;0.95;;
12141;SDS011;6134;59.284;18.022;2023-05-17T12:36:47;1.73;;;0.82;;
12141;SDS011;6134;59.284;18.022;2023-05-17T12:39:16;1.13;;;0.80;;
12141;SDS011;6134;59.284;18.022;2023-05-17T12:41:49;0.50;;;0.50;;
12141;SDS011;6134;59.284;18.022;2023-05-17T12:44:19;0.63;;;0.63;;
12141;SDS011;6134;59.284;18.022;2023-05-17T12:46:48;0.65;;;0.65;;
12141;SDS011;6134;59.284;18.022;2023-05-17T12:49:19;0.82;;;0.80;;
12141;SDS011;6134;59.284;18.022;2023-05-17T12:51:49;1.38;;;0.80;;
12141;SDS011;6134;59.284;18.022;2023-05-17T12:54:24;0.60;;;0.60;;
12141;SDS011;6134;59.284;18.022;2023-05-17T12:56:54;0.60;;;0.60;;
12141;SDS011;6134;59.284;18.022;2023-05-17T12:59:24;0.82;;;0.68;;
12141;SDS011;6134;59.284;18.022;2023-05-17T13:01:55;0.88;;;0.80;;
12141;SDS011;6134;59.284;18.022;2023-05-17T13:04:27;1.10;;;0.52;;
12141;SDS011;6134;59.284;18.022;2023-05-17T13:06:58;0.93;;;0.60;;
12141;SDS011;6134;59.284;18.022;2023-05-17T13:09:28;1.02;;;0.70;;
12141;SDS011;6134;59.284;18.022;2023-05-17T13:11:58;0.80;;;0.70;;
12141;SDS011;6134;59.284;18.022;2023-05-17T13:14:35;0.70;;;0.70;;
12141;SDS011;6134;59.284;18.022;2023-05-17T13:17:07;1.10;;;0.60;;
12141;SDS011;6134;59.284;18.022;2023-05-17T13:19:37;0.70;;;0.70;;
12141;SDS011;6134;59.284;18.022;2023-05-17T13:22:06;0.60;;;0.60;;
12141;SDS011;6134;59.284;18.022;2023-05-17T13:24:35;0.50;;;0.50;;
12141;SDS011;6134;59.284;18.022;2023-05-17T13:27:05;0.45;;;0.45;;
12141;SDS011;6134;59.284;18.022;2023-05-17T13:29:37;0.40;;;0.40;;
12141;SDS011;6134;59.284;18.022;2023-05-17T13:32:06;0.55;;;0.55;;
12141;SDS011;6134;59.284;18.022;2023-05-17T13:34:35;0.88;;;0.50;;
12141;SDS011;6134;59.284;18.022;2023-05-17T13:37:04;0.80;;;0.40;;
12141;SDS011;6134;59.284;18.022;2023-05-17T13:39:37;0.50;;;0.50;;
12141;SDS011;6134;59.284;18.022;2023-05-17T13:42:07;1.55;;;0.70;;
12141;SDS011;6134;59.284;18.022;2023-05-17T13:44:39;0.60;;;0.60;;
12141;SDS011;6134;59.284;18.022;2023-05-17T13:47:07;0.40;;;0.40;;
12141;SDS011;6134;59.284;18.022;2023-05-17T13:49:36;0.43;;;0.43;;
12141;SDS011;6134;59.284;18.022;2023-05-17T13:52:05;0.43;;;0.43;;
12141;SDS011;6134;59.284;18.022;2023-05-17T13:54:35;1.05;;;0.45;;
12141;SDS011;6134;59.284;18.022;2023-05-17T13:57:04;2.60;;;0.52;;
12141;SDS011;6134;59.284;18.022;2023-05-17T13:59:33;0.40;;;0.40;;
12141;SDS011;6134;59.284;18.022;2023-05-17T14:02:04;0.50;;;0.50;;
12141;SDS011;6134;59.284;18.022;2023-05-17T14:04:33;1.55;;;0.50;;
12141;SDS011;6134;59.284;18.022;2023-05-17T14:07:02;0.77;;;0.40;;
12141;SDS011;6134;59.284;18.022;2023-05-17T14:09:31;0.65;;;0.50;;
12141;SDS011;6134;59.284;18.022;2023-05-17T14:12:03;1.42;;;0.40;;
12141;SDS011;6134;59.284;18.022;2023-05-17T14:14:40;0.57;;;0.57;;
12141;SDS011;6134;59.284;18.022;2023-05-17T14:17:11;2.05;;;0.60;;
12141;SDS011;6134;59.284;18.022;2023-05-17T14:19:39;1.38;;;0.60;;
12141;SDS011;6134;59.284;18.022;2023-05-17T14:22:08;0.70;;;0.70;;
12141;SDS011;6134;59.284;18.022;2023-05-17T14:24:39;0.80;;;0.80;;
12141;SDS011;6134;59.284;18.022;2023-05-17T14:27:10;3.15;;;0.80;;
12141;SDS011;6134;59.284;18.022;2023-05-17T14:29:39;0.85;;;0.57;;
12141;SDS011;6134;59.284;18.022;2023-05-17T14:32:07;1.15;;;0.60;;
12141;SDS011;6134;59.284;18.022;2023-05-17T14:34:39;0.55;;;0.55;;
12141;SDS011;6134;59.284;18.022;2023-05-17T14:37:08;0.47;;;0.47;;
12141;SDS011;6134;59.284;18.022;2023-05-17T14:39:37;0.52;;;0.52;;
12141;SDS011;6134;59.284;18.022;2023-05-17T14:42:06;1.02;;;0.75;;
12141;SDS011;6134;59.284;18.022;2023-05-17T14:44:35;1.45;;;0.60;;
12141;SDS011;6134;59.284;18.022;2023-05-17T14:47:05;0.40;;;0.40;;
12141;SDS011;6134;59.284;18.022;2023-05-17T14:49:34;0.50;;;0.50;;
12141;SDS011;6134;59.284;18.022;2023-05-17T14:52:04;0.50;;;0.50;;
12141;SDS011;6134;59.284;18.022;2023-05-17T14:54:33;0.50;;;0.50;;
12141;SDS011;6134;59.284;18.022;2023-05-17T14:57:02;0.52;;;0.47;;
12141;SDS011;6134;59.284;18.022;2023-05-17T14:59:31;0.60;;;0.47;;
12141;SDS011;6134;59.284;18.022;2023-05-17T15:02:00;0.30;;;0.30;;
12141;SDS011;6134;59.284;18.022;2023-05-17T15:04:30;0.63;;;0.63;;
12141;SDS011;6134;59.284;18.022;2023-05-17T15:06:59;0.50;;;0.50;;
12141;SDS011;6134;59.284;18.022;2023-05-17T15:09:29;0.85;;;0.60;;
12141;SDS011;6134;59.284;18.022;2023-05-17T15:11:58;0.50;;;0.50;;
12141;SDS011;6134;59.284;18.022;2023-05-17T15:14:27;0.60;;;0.55;;